createdAt,value
2023-03-16T00:01:45.028Z,2.00
2023-03-16T00:04:11.916Z,2.00
2023-03-16T00:06:38.872Z,1.90
2023-03-16T00:09:05.778Z,2.10
2023-03-16T00:11:32.800Z,2.10
2023-03-16T00:13:59.803Z,1.90
2023-03-16T00:16:26.811Z,1.90
2023-03-16T00:18:53.796Z,1.90
2023-03-16T00:21:21.159Z,2.10
2023-03-16T00:23:48.127Z,1.90
2023-03-16T00:26:15.102Z,2.00
2023-03-16T00:28:42.677Z,1.80
2023-03-16T00:31:14.784Z,1.90
2023-03-16T00:33:45.225Z,2.00
2023-03-16T00:36:12.789Z,1.90
2023-03-16T00:38:45.466Z,1.80
2023-03-16T00:41:14.687Z,1.70
2023-03-16T00:43:43.959Z,1.70
2023-03-16T00:46:13.814Z,1.70
2023-03-16T00:48:44.711Z,1.90
2023-03-16T00:51:14.826Z,1.70
2023-03-16T00:53:44.365Z,1.70
2023-03-16T00:56:13.661Z,1.90
2023-03-16T00:58:43.203Z,1.70
2023-03-16T01:01:19.075Z,1.70
2023-03-16T01:03:46.446Z,1.70
2023-03-16T01:06:17.294Z,1.80
2023-03-16T01:08:44.696Z,1.70
2023-03-16T01:11:17.814Z,1.70
2023-03-16T01:13:47.109Z,1.80
2023-03-16T01:16:14.954Z,1.80
2023-03-16T01:18:42.208Z,1.60
2023-03-16T01:21:13.771Z,1.60
2023-03-16T01:23:41.215Z,1.60
2023-03-16T01:26:08.418Z,1.60
2023-03-16T01:28:35.411Z,1.70
2023-03-16T01:31:06.535Z,1.60
2023-03-16T01:33:34.176Z,1.70
2023-03-16T01:36:06.202Z,1.60
2023-03-16T01:38:33.759Z,1.60
2023-03-16T01:41:01.537Z,1.70
2023-03-16T01:43:30.885Z,1.70
2023-03-16T01:46:14.385Z,1.50
2023-03-16T01:48:51.830Z,1.50
2023-03-16T01:51:22.612Z,1.70
2023-03-16T01:53:54.879Z,1.70
2023-03-16T01:56:43.905Z,1.50
2023-03-16T01:59:15.664Z,1.40
2023-03-16T02:01:43.903Z,1.50
2023-03-16T02:04:26.854Z,1.60
2023-03-16T02:06:57.338Z,1.50
2023-03-16T02:09:25.846Z,1.50
2023-03-16T02:11:55.225Z,1.40
2023-03-16T02:14:22.514Z,1.50
2023-03-16T02:16:50.756Z,1.30
2023-03-16T02:19:33.175Z,1.50
2023-03-16T02:22:04.681Z,1.40
2023-03-16T02:24:32.202Z,1.40
2023-03-16T02:27:07.335Z,1.20
2023-03-16T02:29:52.976Z,1.40
2023-03-16T02:32:23.106Z,1.40
2023-03-16T02:34:50.155Z,1.50
2023-03-16T02:37:17.190Z,1.20
2023-03-16T02:39:45.681Z,1.20
2023-03-16T02:42:18.745Z,1.30
2023-03-16T02:44:52.130Z,1.30
2023-03-16T02:47:44.681Z,1.20
2023-03-16T02:50:13.107Z,1.30
2023-03-16T02:55:48.389Z,1.20
2023-03-16T02:58:19.926Z,1.20
2023-03-16T03:00:54.194Z,1.20
2023-03-16T03:03:25.055Z,1.20
2023-03-16T03:05:57.585Z,1.20
2023-03-16T03:08:28.622Z,1.20
2023-03-16T03:11:00.215Z,1.20
2023-03-16T03:13:33.135Z,1.20
2023-03-16T03:16:04.900Z,1.10
2023-03-16T03:18:38.135Z,1.20
2023-03-16T03:24:04.740Z,1.10
2023-03-16T03:26:35.996Z,1.10
2023-03-16T03:43:49.478Z,1.10
2023-03-16T03:46:21.418Z,1.10
2023-03-16T03:48:56.377Z,1.10
2023-03-16T03:51:30.294Z,1.10
2023-03-16T03:57:00.051Z,1.10
2023-03-16T03:59:32.586Z,1.00
2023-03-16T04:02:04.584Z,1.00
2023-03-16T04:04:35.610Z,1.00
2023-03-16T04:07:07.463Z,1.00
2023-03-16T04:09:38.596Z,1.00
2023-03-16T04:12:10.212Z,0.90
2023-03-16T04:26:55.438Z,1.00
2023-03-16T04:35:17.392Z,1.00
2023-03-16T04:40:44.802Z,1.00
2023-03-16T04:43:18.369Z,1.00
2023-03-16T04:45:49.750Z,1.00
2023-03-16T04:48:20.580Z,0.90
2023-03-16T04:50:50.812Z,0.70
2023-03-16T04:53:21.042Z,0.70
2023-03-16T04:55:53.464Z,0.90
2023-03-16T04:58:24.585Z,0.90
2023-03-16T05:00:57.260Z,0.90
2023-03-16T05:03:25.143Z,0.80
2023-03-16T05:05:52.245Z,1.20
2023-03-16T05:08:19.212Z,1.10
2023-03-16T05:10:48.156Z,0.90
2023-03-16T05:13:15.126Z,0.90
2023-03-16T05:15:42.248Z,0.90
2023-03-16T05:18:09.254Z,0.90
2023-03-16T05:20:36.213Z,0.90
2023-03-16T05:23:03.139Z,0.90
2023-03-16T05:25:30.417Z,0.90
2023-03-16T05:27:59.695Z,0.90
2023-03-16T05:30:27.243Z,1.00
2023-03-16T05:32:56.734Z,1.00
2023-03-16T05:35:24.369Z,1.00
2023-03-16T05:37:51.400Z,1.00
2023-03-16T05:40:18.674Z,1.00
2023-03-16T05:42:47.098Z,1.10
2023-03-16T05:45:15.656Z,1.10
2023-03-16T05:47:43.783Z,1.10
2023-03-16T05:50:12.618Z,1.10
2023-03-16T05:52:40.596Z,1.20
2023-03-16T05:55:09.460Z,1.20
2023-03-16T05:57:36.621Z,1.20
2023-03-16T06:00:16.083Z,1.20
2023-03-16T06:02:44.877Z,1.30
2023-03-16T06:05:11.884Z,1.30
2023-03-16T06:07:38.964Z,1.30
2023-03-16T06:10:06.801Z,1.40
2023-03-16T06:12:34.613Z,1.40
2023-03-16T06:15:02.726Z,1.60
2023-03-16T06:17:29.798Z,1.60
2023-03-16T06:19:56.742Z,1.60
2023-03-16T06:22:25.077Z,1.70
2023-03-16T06:24:52.530Z,2.20
2023-03-16T06:27:20.430Z,3.00
2023-03-16T06:29:47.860Z,4.40
2023-03-16T06:32:15.097Z,5.70
2023-03-16T06:34:42.008Z,7.00
2023-03-16T06:37:08.995Z,8.10
2023-03-16T06:39:36.021Z,9.20
2023-03-16T06:42:04.537Z,10.10
2023-03-16T06:44:31.707Z,11.00
2023-03-16T06:46:59.157Z,11.60
2023-03-16T06:49:26.194Z,11.40
2023-03-16T06:51:53.023Z,10.60
2023-03-16T06:54:19.887Z,9.90
2023-03-16T06:56:46.763Z,9.30
2023-03-16T06:59:13.741Z,8.90
2023-03-16T07:01:40.671Z,8.70
2023-03-16T07:04:08.213Z,8.70
2023-03-16T07:06:35.148Z,8.30
2023-03-16T07:09:03.757Z,8.20
2023-03-16T07:11:32.451Z,8.10
2023-03-16T07:13:59.996Z,8.10
2023-03-16T07:16:27.536Z,8.00
2023-03-16T07:18:54.764Z,8.00
2023-03-16T07:21:22.067Z,8.20
2023-03-16T07:23:49.543Z,8.10
2023-03-16T07:26:16.422Z,8.10
2023-03-16T07:28:43.431Z,8.10
2023-03-16T07:31:10.327Z,8.10
2023-03-16T07:33:37.370Z,8.20
2023-03-16T07:36:05.698Z,8.30
2023-03-16T07:38:33.926Z,8.30
2023-03-16T07:41:01.219Z,8.40
2023-03-16T07:43:29.320Z,8.40
2023-03-16T07:45:56.269Z,8.40
2023-03-16T07:48:23.314Z,8.50
2023-03-16T07:50:50.689Z,8.60
2023-03-16T07:53:18.056Z,8.60
2023-03-16T07:55:45.268Z,8.60
2023-03-16T07:58:12.591Z,8.60
2023-03-16T08:00:39.866Z,8.70
2023-03-16T08:03:08.879Z,8.80
2023-03-16T08:05:35.782Z,8.80
2023-03-16T08:08:02.712Z,8.60
2023-03-16T08:10:32.517Z,8.70
2023-03-16T08:12:59.664Z,8.40
2023-03-16T08:15:26.597Z,8.30
2023-03-16T08:17:54.106Z,8.20
2023-03-16T08:20:21.201Z,8.10
2023-03-16T08:22:49.637Z,8.00
2023-03-16T08:25:17.198Z,7.90
2023-03-16T08:27:44.065Z,7.80
2023-03-16T08:30:13.208Z,7.90
2023-03-16T08:32:41.018Z,7.70
2023-03-16T08:35:17.305Z,7.70
2023-03-16T08:37:44.242Z,7.70
2023-03-16T08:40:14.145Z,7.60
2023-03-16T08:42:41.551Z,7.60
2023-03-16T08:45:12.269Z,7.80
2023-03-16T08:47:40.756Z,7.60
2023-03-16T08:50:08.763Z,7.60
2023-03-16T08:52:36.469Z,7.50
2023-03-16T08:55:07.709Z,7.70
2023-03-16T08:57:34.796Z,7.50
2023-03-16T09:00:05.488Z,7.50
2023-03-16T09:02:32.662Z,7.60
2023-03-16T09:04:59.614Z,7.50
2023-03-16T09:07:26.543Z,7.60
2023-03-16T09:09:53.484Z,7.60
2023-03-16T09:12:22.179Z,7.70
2023-03-16T09:14:49.185Z,7.60
2023-03-16T09:17:16.130Z,7.90
2023-03-16T09:19:51.980Z,7.70
2023-03-16T09:22:20.586Z,7.70
2023-03-16T09:24:48.657Z,7.80
2023-03-16T09:27:16.426Z,7.90
2023-03-16T09:29:43.849Z,8.00
2023-03-16T09:32:11.097Z,8.00
2023-03-16T09:34:38.146Z,8.10
2023-03-16T09:37:05.490Z,8.10
2023-03-16T09:39:32.990Z,8.30
2023-03-16T09:42:21.655Z,8.50
2023-03-16T09:45:06.170Z,8.60
2023-03-16T09:47:36.221Z,8.70
2023-03-16T09:50:09.791Z,9.00
2023-03-16T09:53:23.467Z,8.90
2023-03-16T09:55:55.420Z,9.00
2023-03-16T09:59:18.760Z,9.00
2023-03-16T10:02:25.503Z,9.20
2023-03-16T10:05:07.890Z,9.30
2023-03-16T10:08:01.948Z,9.40
2023-03-16T10:13:39.079Z,9.40
2023-03-16T10:16:30.855Z,9.40
2023-03-16T10:19:16.981Z,9.50
2023-03-16T10:21:47.467Z,9.40
2023-03-16T10:24:59.168Z,9.50
2023-03-16T10:27:39.516Z,9.60
2023-03-16T10:30:27.504Z,9.70
2023-03-16T10:32:56.188Z,9.70
2023-03-16T10:35:34.767Z,9.70
2023-03-16T10:38:01.968Z,9.80
2023-03-16T10:40:39.726Z,9.70
2023-03-16T10:43:12.973Z,9.60
2023-03-16T10:45:42.583Z,9.60
2023-03-16T10:48:25.332Z,9.70
2023-03-16T10:50:57.663Z,9.50
2023-03-16T10:53:31.559Z,9.70
2023-03-16T10:56:13.146Z,9.50
2023-03-16T10:58:42.564Z,9.50
2023-03-16T11:01:26.978Z,9.50
2023-03-16T11:03:57.309Z,9.50
2023-03-16T11:06:25.843Z,9.50
2023-03-16T11:08:54.933Z,9.50
2023-03-16T11:11:29.853Z,9.50
2023-03-16T11:14:11.295Z,9.50
2023-03-16T11:16:52.003Z,9.50
2023-03-16T11:19:24.363Z,9.50
2023-03-16T11:21:59.890Z,9.60
2023-03-16T11:25:09.348Z,9.50
2023-03-16T11:28:13.310Z,9.50
2023-03-16T11:31:01.372Z,9.60
2023-03-16T11:33:34.881Z,9.60
2023-03-16T11:36:31.100Z,9.60
2023-03-16T11:39:27.440Z,9.70
2023-03-16T11:42:01.152Z,9.80
2023-03-16T11:44:37.130Z,9.80
2023-03-16T11:47:24.340Z,9.90
2023-03-16T11:50:12.112Z,10.10
2023-03-16T11:53:05.137Z,10.30
2023-03-16T11:55:50.623Z,10.40
2023-03-16T11:58:46.592Z,10.60
2023-03-16T12:01:43.006Z,10.70
2023-03-16T12:04:33.415Z,10.90
2023-03-16T12:07:06.602Z,11.00
2023-03-16T12:09:50.963Z,11.10
2023-03-16T12:12:45.427Z,11.00
2023-03-16T12:15:44.795Z,11.00
2023-03-16T12:18:23.285Z,11.00
2023-03-16T12:20:56.304Z,11.00
2023-03-16T12:23:44.090Z,10.80
2023-03-16T12:26:12.356Z,10.80
2023-03-16T12:28:42.151Z,10.70
2023-03-16T12:31:31.786Z,10.60
2023-03-16T12:34:05.580Z,10.60
2023-03-16T12:36:53.772Z,10.50
2023-03-16T12:39:23.694Z,10.50
2023-03-16T12:41:59.795Z,10.50
2023-03-16T12:45:04.360Z,10.40
2023-03-16T12:47:55.975Z,10.30
2023-03-16T12:50:23.496Z,10.40
2023-03-16T12:52:53.283Z,10.30
2023-03-16T12:55:28.230Z,10.30
2023-03-16T12:58:06.313Z,10.40
2023-03-16T13:00:42.565Z,10.40
2023-03-16T13:03:20.168Z,10.50
2023-03-16T13:05:53.282Z,10.60
2023-03-16T13:08:21.403Z,10.70
2023-03-16T13:11:11.792Z,11.00
2023-03-16T13:14:05.369Z,10.90
2023-03-16T13:16:36.371Z,11.00
2023-03-16T13:19:27.220Z,11.20
2023-03-16T13:22:04.295Z,11.30
2023-03-16T13:24:41.011Z,11.40
2023-03-16T13:27:23.230Z,11.50
2023-03-16T13:29:58.805Z,11.60
2023-03-16T13:32:30.199Z,11.50
2023-03-16T13:34:59.950Z,11.60
2023-03-16T13:37:29.769Z,11.70
2023-03-16T13:39:59.920Z,11.70
2023-03-16T13:42:34.029Z,12.00
2023-03-16T13:45:14.267Z,11.80
2023-03-16T13:47:45.941Z,11.70
2023-03-16T13:50:15.135Z,11.80
2023-03-16T13:52:44.168Z,11.60
2023-03-16T13:55:22.240Z,11.60
2023-03-16T13:57:49.704Z,11.50
2023-03-16T14:00:28.251Z,11.50
2023-03-16T14:02:58.809Z,11.50
2023-03-16T14:05:33.322Z,11.50
2023-03-16T14:08:01.373Z,11.60
2023-03-16T14:10:33.292Z,11.70
2023-03-16T14:13:25.547Z,11.80
2023-03-16T14:16:20.086Z,11.90
2023-03-16T14:19:08.070Z,12.00
2023-03-16T14:21:35.455Z,12.10
2023-03-16T14:24:07.821Z,12.30
2023-03-16T14:26:43.691Z,12.50
2023-03-16T14:29:31.052Z,12.60
2023-03-16T14:32:32.187Z,12.80
2023-03-16T14:35:17.514Z,12.80
2023-03-16T14:37:45.026Z,12.80
2023-03-16T14:40:30.783Z,12.80
2023-03-16T14:43:03.719Z,12.80
2023-03-16T14:45:34.923Z,12.70
2023-03-16T14:48:10.469Z,12.60
2023-03-16T14:50:37.418Z,12.50
2023-03-16T14:53:04.919Z,12.70
2023-03-16T14:55:32.234Z,12.70
2023-03-16T14:57:59.259Z,12.80
2023-03-16T15:00:26.567Z,13.00
2023-03-16T15:03:03.111Z,12.80
2023-03-16T15:05:38.950Z,12.80
2023-03-16T15:08:11.655Z,13.00
2023-03-16T15:10:39.226Z,12.80
2023-03-16T15:13:34.603Z,12.90
2023-03-16T15:16:05.837Z,12.90
2023-03-16T15:18:33.566Z,12.70
2023-03-16T15:21:02.133Z,12.60
2023-03-16T15:23:30.797Z,12.60
2023-03-16T15:26:02.987Z,12.50
2023-03-16T15:28:30.390Z,12.40
2023-03-16T15:30:59.647Z,12.40
2023-03-16T15:33:27.263Z,12.30
2023-03-16T15:35:58.049Z,12.30
2023-03-16T15:38:32.273Z,12.30
2023-03-16T15:40:59.834Z,12.30
2023-03-16T15:43:29.608Z,12.30
2023-03-16T15:45:58.817Z,12.40
2023-03-16T15:48:26.355Z,12.40
2023-03-16T15:51:16.816Z,12.40
2023-03-16T15:53:59.539Z,12.40
2023-03-16T15:56:32.338Z,12.30
2023-03-16T15:59:04.207Z,12.30
2023-03-16T16:01:39.243Z,12.50
2023-03-16T16:04:19.497Z,12.30
2023-03-16T16:06:50.127Z,12.20
2023-03-16T16:09:17.286Z,12.30
2023-03-16T16:11:47.054Z,12.10
2023-03-16T16:14:17.294Z,12.00
2023-03-16T16:16:48.472Z,11.90
2023-03-16T16:19:16.542Z,11.80
2023-03-16T16:21:44.354Z,11.70
2023-03-16T16:24:11.468Z,11.60
2023-03-16T16:26:52.153Z,11.50
2023-03-16T16:29:23.703Z,11.40
2023-03-16T16:31:54.250Z,11.50
2023-03-16T16:34:24.533Z,11.20
2023-03-16T16:36:52.238Z,11.30
2023-03-16T16:39:19.236Z,11.10
2023-03-16T16:41:47.975Z,11.10
2023-03-16T16:44:27.607Z,11.00
2023-03-16T16:46:55.179Z,10.90
2023-03-16T16:49:28.211Z,10.80
2023-03-16T16:51:55.423Z,10.90
2023-03-16T16:54:29.778Z,10.60
2023-03-16T16:56:59.250Z,10.50
2023-03-16T16:59:33.182Z,10.40
2023-03-16T17:02:02.212Z,10.30
2023-03-16T17:04:30.032Z,10.20
2023-03-16T17:07:00.685Z,10.10
2023-03-16T17:09:29.157Z,10.10
2023-03-16T17:11:59.220Z,9.90
2023-03-16T17:14:31.122Z,9.80
2023-03-16T17:17:01.654Z,10.10
2023-03-16T17:19:28.721Z,9.80
2023-03-16T17:21:57.589Z,9.70
2023-03-16T17:24:24.868Z,9.60
2023-03-16T17:26:54.926Z,9.60
2023-03-16T17:29:32.884Z,9.60
2023-03-16T17:32:02.462Z,9.50
2023-03-16T17:34:32.813Z,9.80
2023-03-16T17:36:59.860Z,9.50
2023-03-16T17:39:29.380Z,9.60
2023-03-16T17:42:01.019Z,9.40
2023-03-16T17:44:33.399Z,9.40
2023-03-16T17:47:00.471Z,9.30
2023-03-16T17:49:28.564Z,9.30
2023-03-16T17:51:55.816Z,9.30
2023-03-16T18:11:47.593Z,8.90
2023-03-16T18:14:35.504Z,8.90
2023-03-16T18:17:29.106Z,8.90
2023-03-16T18:19:56.730Z,8.80
2023-03-16T18:22:24.854Z,8.80
2023-03-16T18:24:53.963Z,8.70
2023-03-16T18:27:22.127Z,9.00
2023-03-16T18:29:49.187Z,8.70
2023-03-16T18:32:25.495Z,8.60
2023-03-16T18:34:53.220Z,8.60
2023-03-16T18:37:23.358Z,8.60
2023-03-16T18:39:51.852Z,8.50
2023-03-16T18:42:24.103Z,8.50
2023-03-16T18:44:51.508Z,8.40
2023-03-16T18:47:20.533Z,8.40
2023-03-16T18:49:49.818Z,8.40
2023-03-16T18:52:22.854Z,8.60
2023-03-16T18:54:51.351Z,8.40
2023-03-16T18:57:21.297Z,8.40
2023-03-16T18:59:48.613Z,8.40
2023-03-16T19:02:33.688Z,8.40
2023-03-16T19:05:03.329Z,8.40
2023-03-16T19:07:40.039Z,8.40
2023-03-16T19:10:24.044Z,8.30
2023-03-16T19:12:51.179Z,8.30
2023-03-16T19:15:30.677Z,8.30
2023-03-16T19:17:58.758Z,8.30
2023-03-16T19:20:31.733Z,8.20
2023-03-16T19:23:23.090Z,8.20
2023-03-16T19:25:51.748Z,8.20
2023-03-16T19:28:51.221Z,8.20
2023-03-16T19:31:21.314Z,8.10
2023-03-16T19:33:49.041Z,8.10
2023-03-16T19:36:28.292Z,8.10
2023-03-16T19:38:55.436Z,8.00
2023-03-16T19:41:26.950Z,8.10
2023-03-16T19:43:57.751Z,7.90
2023-03-16T19:46:35.519Z,7.90
2023-03-16T19:49:27.990Z,7.90
2023-03-16T19:51:56.137Z,7.70
2023-03-16T19:54:27.604Z,7.70
2023-03-16T19:56:58.028Z,7.60
2023-03-16T19:59:29.225Z,7.60
2023-03-16T20:01:56.152Z,7.80
2023-03-16T20:04:25.131Z,7.50
2023-03-16T20:06:53.559Z,7.40
2023-03-16T20:09:22.125Z,7.40
2023-03-16T20:11:49.779Z,7.30
2023-03-16T20:14:27.148Z,7.30
2023-03-16T20:16:54.239Z,7.30
2023-03-16T20:19:22.370Z,7.20
2023-03-16T20:21:49.548Z,7.20
2023-03-16T20:24:19.030Z,7.20
2023-03-16T20:26:47.884Z,7.10
2023-03-16T20:29:30.172Z,7.40
2023-03-16T20:31:57.900Z,7.00
2023-03-16T20:34:28.378Z,7.20
2023-03-16T20:36:55.986Z,7.00
2023-03-16T20:39:22.972Z,6.90
2023-03-16T20:41:50.773Z,7.00
2023-03-16T20:44:21.118Z,7.10
2023-03-16T20:46:48.110Z,6.90
2023-03-16T20:49:35.335Z,6.90
2023-03-16T20:52:02.322Z,7.00
2023-03-16T20:54:29.225Z,7.00
2023-03-16T20:56:56.141Z,7.00
2023-03-16T20:59:28.176Z,7.10
2023-03-16T21:01:55.751Z,7.00
2023-03-16T21:04:27.073Z,7.40
2023-03-16T21:06:55.708Z,7.10
2023-03-16T21:09:22.691Z,7.10
2023-03-16T21:11:49.799Z,7.20
2023-03-16T21:14:20.045Z,7.20
2023-03-16T21:16:47.787Z,7.40
2023-03-16T21:19:20.953Z,7.20
2023-03-16T21:21:47.887Z,7.20
2023-03-16T21:24:14.921Z,7.20
2023-03-16T21:26:43.932Z,7.20
2023-03-16T21:29:18.218Z,7.30
2023-03-16T21:31:45.464Z,7.30
2023-03-16T21:34:26.958Z,7.30
2023-03-16T21:36:53.930Z,7.30
2023-03-16T21:39:23.682Z,7.30
2023-03-16T21:41:51.064Z,7.30
2023-03-16T21:44:18.489Z,7.30
2023-03-16T21:46:47.265Z,7.30
2023-03-16T21:49:15.750Z,7.30
2023-03-16T21:51:43.350Z,7.30
2023-03-16T21:54:14.938Z,7.30
2023-03-16T21:56:42.490Z,7.30
2023-03-16T21:59:10.706Z,7.20
2023-03-16T22:01:50.639Z,7.30
2023-03-16T22:04:21.771Z,7.20
2023-03-16T22:06:48.636Z,7.50
2023-03-16T22:09:20.691Z,7.20
2023-03-16T22:11:47.720Z,7.30
2023-03-16T22:14:14.631Z,7.30
2023-03-16T22:16:41.913Z,7.50
2023-03-16T22:19:13.415Z,7.20
2023-03-16T22:21:42.738Z,7.20
2023-03-16T22:24:35.803Z,7.20
2023-03-16T22:27:02.764Z,7.20
2023-03-16T22:29:33.530Z,7.20
2023-03-16T22:32:04.514Z,7.20
2023-03-16T22:34:47.007Z,7.20
2023-03-16T22:37:18.153Z,7.20
2023-03-16T22:39:45.199Z,7.20
2023-03-16T22:42:37.916Z,7.20
2023-03-16T22:45:15.656Z,7.20
2023-03-16T22:47:42.656Z,7.20
2023-03-16T22:50:14.564Z,7.20
2023-03-16T22:52:41.622Z,7.10
2023-03-16T22:55:15.689Z,7.10
2023-03-16T22:57:42.629Z,7.10
2023-03-16T23:00:13.912Z,7.40
2023-03-16T23:02:40.988Z,7.10
2023-03-16T23:05:23.153Z,7.40
2023-03-16T23:07:50.652Z,7.10
2023-03-16T23:10:23.970Z,7.00
2023-03-16T23:12:52.038Z,7.30
2023-03-16T23:15:23.763Z,7.00
2023-03-16T23:17:51.429Z,7.30
2023-03-16T23:20:23.369Z,7.00
2023-03-16T23:22:50.429Z,7.00
2023-03-16T23:25:17.422Z,7.00
2023-03-16T23:27:44.776Z,7.10
2023-03-16T23:30:16.768Z,7.00
2023-03-16T23:32:44.873Z,7.10
2023-03-16T23:35:22.411Z,7.20
2023-03-16T23:37:50.246Z,7.10
2023-03-16T23:40:18.747Z,7.00
2023-03-16T23:42:46.597Z,7.10
2023-03-16T23:45:38.422Z,7.20
2023-03-16T23:48:11.124Z,7.10
2023-03-16T23:50:39.738Z,7.20
2023-03-16T23:53:15.236Z,7.20
2023-03-16T23:55:43.118Z,7.20
2023-03-16T23:58:11.346Z,7.20
